Ashley, North Dakota
Current Conditions -  °F | °C
As of 2:55 PM on Thursday 18 Dec 2014 (Local Time) from K7L2 Reporting Station
Unknown Precip Unknown Precip  
Wind Chill: -9°   Ceiling: 1900
Heat Index: -4°   Visibility: 4mi
Dew Point: -4°   Wind: 8mph
Humidity: 100%   Direction: 170°S
Pressure: 30.03"   Gusts: NA
Location:  46.03°N, 99.37°W
Report Text: K7L2 182055Z AUTO 17007KT 4SM UP BKN019 OVC023 M04/M04 A3003 RMK AO2
Loading
Personal Weather Stations






























Interactive Weather Map New forecast layout! Learn more

10-Day Weather Forecast

Advertisements
Track Severe Weather on mobile